sensor_id;sensor_type;location;lat;lon;timestamp;temperature;humidity
11246;DHT22;59870;50.106;8.580;2023-12-20T00:01:33;9.80;99.90
11246;DHT22;59870;50.106;8.580;2023-12-20T00:04:02;9.80;99.90
11246;DHT22;59870;50.106;8.580;2023-12-20T00:06:30;9.90;99.90
11246;DHT22;59870;50.106;8.580;2023-12-20T00:08:57;9.90;99.90
11246;DHT22;59870;50.106;8.580;2023-12-20T00:11:25;9.90;99.90
11246;DHT22;59870;50.106;8.580;2023-12-20T00:13:52;10.00;99.50
11246;DHT22;59870;50.106;8.580;2023-12-20T00:16:20;9.90;99.90
11246;DHT22;59870;50.106;8.580;2023-12-20T00:18:48;9.90;99.90
11246;DHT22;59870;50.106;8.580;2023-12-20T00:21:16;9.90;99.90
11246;DHT22;59870;50.106;8.580;2023-12-20T00:23:43;9.90;99.90
11246;DHT22;59870;50.106;8.580;2023-12-20T00:26:11;9.90;99.90
11246;DHT22;59870;50.106;8.580;2023-12-20T00:28:38;9.90;99.90
11246;DHT22;59870;50.106;8.580;2023-12-20T00:31:06;9.90;99.90
11246;DHT22;59870;50.106;8.580;2023-12-20T00:33:33;10.10;99.50
11246;DHT22;59870;50.106;8.580;2023-12-20T00:36:01;9.90;99.90
11246;DHT22;59870;50.106;8.580;2023-12-20T00:38:29;9.90;99.90
11246;DHT22;59870;50.106;8.580;2023-12-20T00:40:56;9.90;99.90
11246;DHT22;59870;50.106;8.580;2023-12-20T00:43:24;9.90;99.90
11246;DHT22;59870;50.106;8.580;2023-12-20T00:45:51;9.80;99.90
11246;DHT22;59870;50.106;8.580;2023-12-20T00:48:20;9.70;99.90
11246;DHT22;59870;50.106;8.580;2023-12-20T00:50:48;10.10;99.90
11246;DHT22;59870;50.106;8.580;2023-12-20T00:53:15;9.80;99.90
11246;DHT22;59870;50.106;8.580;2023-12-20T00:58:54;9.70;99.90
11246;DHT22;59870;50.106;8.580;2023-12-20T01:01:21;9.70;99.90
11246;DHT22;59870;50.106;8.580;2023-12-20T01:03:49;9.70;99.90
11246;DHT22;59870;50.106;8.580;2023-12-20T01:06:18;10.10;99.90
11246;DHT22;59870;50.106;8.580;2023-12-20T01:08:47;9.80;99.90
11246;DHT22;59870;50.106;8.580;2023-12-20T01:11:15;9.70;99.90
11246;DHT22;59870;50.106;8.580;2023-12-20T01:13:43;9.70;99.90
11246;DHT22;59870;50.106;8.580;2023-12-20T01:16:12;9.90;99.90
11246;DHT22;59870;50.106;8.580;2023-12-20T01:18:39;9.70;99.90
11246;DHT22;59870;50.106;8.580;2023-12-20T01:21:07;9.70;99.90
11246;DHT22;59870;50.106;8.580;2023-12-20T01:23:35;9.70;99.90
11246;DHT22;59870;50.106;8.580;2023-12-20T01:26:03;9.70;99.90
11246;DHT22;59870;50.106;8.580;2023-12-20T01:28:31;9.90;99.90
11246;DHT22;59870;50.106;8.580;2023-12-20T01:30:59;9.70;99.90
11246;DHT22;59870;50.106;8.580;2023-12-20T01:33:26;9.70;99.90
11246;DHT22;59870;50.106;8.580;2023-12-20T01:35:54;9.70;99.90
11246;DHT22;59870;50.106;8.580;2023-12-20T01:38:21;9.90;99.90
11246;DHT22;59870;50.106;8.580;2023-12-20T01:40:49;10.10;99.90
11246;DHT22;59870;50.106;8.580;2023-12-20T01:43:16;9.80;99.90
11246;DHT22;59870;50.106;8.580;2023-12-20T01:45:44;9.70;99.90
11246;DHT22;59870;50.106;8.580;2023-12-20T01:48:12;9.70;99.90
11246;DHT22;59870;50.106;8.580;2023-12-20T01:50:40;9.80;99.90
11246;DHT22;59870;50.106;8.580;2023-12-20T01:53:10;9.80;99.90
11246;DHT22;59870;50.106;8.580;2023-12-20T01:55:39;9.80;99.90
11246;DHT22;59870;50.106;8.580;2023-12-20T01:58:09;9.80;99.90
11246;DHT22;59870;50.106;8.580;2023-12-20T02:00:37;9.80;99.90
11246;DHT22;59870;50.106;8.580;2023-12-20T02:03:05;10.00;99.80
11246;DHT22;59870;50.106;8.580;2023-12-20T02:05:35;9.80;99.90
11246;DHT22;59870;50.106;8.580;2023-12-20T02:08:04;9.80;99.90
11246;DHT22;59870;50.106;8.580;2023-12-20T02:10:33;9.80;99.90
11246;DHT22;59870;50.106;8.580;2023-12-20T02:13:00;9.80;99.90
11246;DHT22;59870;50.106;8.580;2023-12-20T02:15:28;10.00;99.70
11246;DHT22;59870;50.106;8.580;2023-12-20T02:17:55;9.80;99.90
11246;DHT22;59870;50.106;8.580;2023-12-20T02:20:23;9.80;99.90
11246;DHT22;59870;50.106;8.580;2023-12-20T02:22:50;9.80;99.90
11246;DHT22;59870;50.106;8.580;2023-12-20T02:25:18;9.80;99.90
11246;DHT22;59870;50.106;8.580;2023-12-20T02:27:45;9.80;99.90
11246;DHT22;59870;50.106;8.580;2023-12-20T02:30:13;9.80;99.90
11246;DHT22;59870;50.106;8.580;2023-12-20T02:32:40;9.80;99.90
11246;DHT22;59870;50.106;8.580;2023-12-20T02:35:08;9.80;99.90
11246;DHT22;59870;50.106;8.580;2023-12-20T02:37:35;9.70;99.90
11246;DHT22;59870;50.106;8.580;2023-12-20T02:40:03;9.70;99.90
11246;DHT22;59870;50.106;8.580;2023-12-20T02:42:31;9.70;99.90
11246;DHT22;59870;50.106;8.580;2023-12-20T02:44:59;9.70;99.90
11246;DHT22;59870;50.106;8.580;2023-12-20T02:47:26;9.70;99.90
11246;DHT22;59870;50.106;8.580;2023-12-20T02:49:54;9.70;99.90
11246;DHT22;59870;50.106;8.580;2023-12-20T02:52:25;9.70;99.90
11246;DHT22;59870;50.106;8.580;2023-12-20T02:54:52;9.70;99.90
11246;DHT22;59870;50.106;8.580;2023-12-20T02:57:20;9.60;99.90
11246;DHT22;59870;50.106;8.580;2023-12-20T02:59:48;9.60;99.90
11246;DHT22;59870;50.106;8.580;2023-12-20T03:02:15;9.70;99.90
11246;DHT22;59870;50.106;8.580;2023-12-20T03:04:43;9.70;99.90
11246;DHT22;59870;50.106;8.580;2023-12-20T03:07:10;10.00;99.90
11246;DHT22;59870;50.106;8.580;2023-12-20T03:09:39;10.10;99.80
11246;DHT22;59870;50.106;8.580;2023-12-20T03:12:27;9.70;99.90
11246;DHT22;59870;50.106;8.580;2023-12-20T03:14:54;9.70;99.90
11246;DHT22;59870;50.106;8.580;2023-12-20T03:17:21;9.70;99.90
11246;DHT22;59870;50.106;8.580;2023-12-20T03:19:49;9.70;99.90
11246;DHT22;59870;50.106;8.580;2023-12-20T03:22:17;9.70;99.90
11246;DHT22;59870;50.106;8.580;2023-12-20T03:24:44;9.80;99.90
11246;DHT22;59870;50.106;8.580;2023-12-20T03:27:12;9.70;99.90
11246;DHT22;59870;50.106;8.580;2023-12-20T03:29:39;9.80;99.90
11246;DHT22;59870;50.106;8.580;2023-12-20T03:32:06;9.80;99.90
11246;DHT22;59870;50.106;8.580;2023-12-20T03:34:35;9.80;99.90
11246;DHT22;59870;50.106;8.580;2023-12-20T03:37:03;10.10;99.90
11246;DHT22;59870;50.106;8.580;2023-12-20T03:39:31;9.80;99.90
11246;DHT22;59870;50.106;8.580;2023-12-20T03:41:59;10.10;99.80
11246;DHT22;59870;50.106;8.580;2023-12-20T03:44:26;9.90;99.90
11246;DHT22;59870;50.106;8.580;2023-12-20T03:46:54;9.80;99.90
11246;DHT22;59870;50.106;8.580;2023-12-20T03:49:22;9.90;99.90
11246;DHT22;59870;50.106;8.580;2023-12-20T03:51:49;10.00;99.80
11246;DHT22;59870;50.106;8.580;2023-12-20T03:54:17;10.00;99.70
11246;DHT22;59870;50.106;8.580;2023-12-20T03:56:44;9.80;99.90
11246;DHT22;59870;50.106;8.580;2023-12-20T03:59:12;9.90;99.90
11246;DHT22;59870;50.106;8.580;2023-12-20T04:01:43;10.00;99.70
11246;DHT22;59870;50.106;8.580;2023-12-20T04:04:14;10.30;99.90
11246;DHT22;59870;50.106;8.580;2023-12-20T04:06:42;9.90;99.90
11246;DHT22;59870;50.106;8.580;2023-12-20T04:09:11;9.90;99.90
11246;DHT22;59870;50.106;8.580;2023-12-20T04:11:39;10.00;99.80
11246;DHT22;59870;50.106;8.580;2023-12-20T04:14:07;10.00;99.80
11246;DHT22;59870;50.106;8.580;2023-12-20T04:16:35;10.00;99.60
11246;DHT22;59870;50.106;8.580;2023-12-20T04:19:02;10.40;99.90
11246;DHT22;59870;50.106;8.580;2023-12-20T04:21:30;10.30;99.60
11246;DHT22;59870;50.106;8.580;2023-12-20T04:23:58;10.30;99.80
11246;DHT22;59870;50.106;8.580;2023-12-20T04:26:25;10.00;99.90
11246;DHT22;59870;50.106;8.580;2023-12-20T04:28:52;10.00;99.90
11246;DHT22;59870;50.106;8.580;2023-12-20T04:31:21;9.90;99.90
11246;DHT22;59870;50.106;8.580;2023-12-20T04:33:49;10.10;99.90
11246;DHT22;59870;50.106;8.580;2023-12-20T04:36:16;9.90;99.90
11246;DHT22;59870;50.106;8.580;2023-12-20T04:38:44;9.90;99.90
11246;DHT22;59870;50.106;8.580;2023-12-20T04:41:12;9.90;99.90
11246;DHT22;59870;50.106;8.580;2023-12-20T04:43:43;9.90;99.90
11246;DHT22;59870;50.106;8.580;2023-12-20T04:46:10;10.20;99.90
11246;DHT22;59870;50.106;8.580;2023-12-20T04:48:38;10.20;99.90
11246;DHT22;59870;50.106;8.580;2023-12-20T04:51:05;10.00;99.80
11246;DHT22;59870;50.106;8.580;2023-12-20T04:53:33;10.00;99.90
11246;DHT22;59870;50.106;8.580;2023-12-20T04:56:01;10.00;99.90
11246;DHT22;59870;50.106;8.580;2023-12-20T04:58:28;10.00;99.90
11246;DHT22;59870;50.106;8.580;2023-12-20T05:00:56;10.00;99.80
11246;DHT22;59870;50.106;8.580;2023-12-20T05:03:23;10.00;99.90
11246;DHT22;59870;50.106;8.580;2023-12-20T05:05:51;10.00;99.80
11246;DHT22;59870;50.106;8.580;2023-12-20T05:08:18;10.00;99.90
11246;DHT22;59870;50.106;8.580;2023-12-20T05:10:47;9.90;99.90
11246;DHT22;59870;50.106;8.580;2023-12-20T05:13:15;9.90;99.90
11246;DHT22;59870;50.106;8.580;2023-12-20T05:15:42;9.90;99.90
11246;DHT22;59870;50.106;8.580;2023-12-20T05:18:10;9.90;99.90
11246;DHT22;59870;50.106;8.580;2023-12-20T05:20:40;9.90;99.90
11246;DHT22;59870;50.106;8.580;2023-12-20T05:23:08;10.00;99.50
11246;DHT22;59870;50.106;8.580;2023-12-20T05:25:35;10.00;99.20
11246;DHT22;59870;50.106;8.580;2023-12-20T05:28:03;10.00;99.00
11246;DHT22;59870;50.106;8.580;2023-12-20T05:30:32;10.00;98.80
11246;DHT22;59870;50.106;8.580;2023-12-20T05:32:59;10.00;98.70
11246;DHT22;59870;50.106;8.580;2023-12-20T05:35:26;10.00;98.50
11246;DHT22;59870;50.106;8.580;2023-12-20T05:37:54;10.00;98.20
11246;DHT22;59870;50.106;8.580;2023-12-20T05:40:22;9.90;98.30
11246;DHT22;59870;50.106;8.580;2023-12-20T05:42:50;9.90;98.10
11246;DHT22;59870;50.106;8.580;2023-12-20T05:45:17;9.90;97.60
11246;DHT22;59870;50.106;8.580;2023-12-20T05:47:45;9.90;97.90
11246;DHT22;59870;50.106;8.580;2023-12-20T05:50:13;9.90;97.80
11246;DHT22;59870;50.106;8.580;2023-12-20T05:52:41;9.90;97.50
11246;DHT22;59870;50.106;8.580;2023-12-20T05:55:08;9.90;97.60
11246;DHT22;59870;50.106;8.580;2023-12-20T05:57:36;10.20;97.10
11246;DHT22;59870;50.106;8.580;2023-12-20T06:00:03;10.00;96.60
11246;DHT22;59870;50.106;8.580;2023-12-20T06:02:38;9.80;97.10
11246;DHT22;59870;50.106;8.580;2023-12-20T06:05:06;9.80;97.10
11246;DHT22;59870;50.106;8.580;2023-12-20T06:07:34;9.70;97.00
11246;DHT22;59870;50.106;8.580;2023-12-20T06:10:02;9.70;97.10
11246;DHT22;59870;50.106;8.580;2023-12-20T06:12:30;9.70;97.10
11246;DHT22;59870;50.106;8.580;2023-12-20T06:15:00;9.70;97.30
11246;DHT22;59870;50.106;8.580;2023-12-20T06:17:28;9.70;97.20
11246;DHT22;59870;50.106;8.580;2023-12-20T06:19:58;9.70;97.10
11246;DHT22;59870;50.106;8.580;2023-12-20T06:22:26;9.70;97.00
11246;DHT22;59870;50.106;8.580;2023-12-20T06:24:54;9.70;96.90
11246;DHT22;59870;50.106;8.580;2023-12-20T06:27:22;9.70;96.90
11246;DHT22;59870;50.106;8.580;2023-12-20T06:29:49;9.60;96.80
11246;DHT22;59870;50.106;8.580;2023-12-20T06:32:17;9.60;96.90
11246;DHT22;59870;50.106;8.580;2023-12-20T06:34:45;9.50;96.90
11246;DHT22;59870;50.106;8.580;2023-12-20T06:37:13;9.50;96.90
11246;DHT22;59870;50.106;8.580;2023-12-20T06:39:40;9.50;97.00
11246;DHT22;59870;50.106;8.580;2023-12-20T06:42:08;9.40;97.10
11246;DHT22;59870;50.106;8.580;2023-12-20T06:44:35;9.40;97.30
11246;DHT22;59870;50.106;8.580;2023-12-20T06:47:04;9.40;97.40
11246;DHT22;59870;50.106;8.580;2023-12-20T06:49:31;9.70;97.60
11246;DHT22;59870;50.106;8.580;2023-12-20T06:51:59;9.40;97.50
11246;DHT22;59870;50.106;8.580;2023-12-20T06:54:27;9.60;97.50
11246;DHT22;59870;50.106;8.580;2023-12-20T06:56:54;9.50;97.50
11246;DHT22;59870;50.106;8.580;2023-12-20T06:59:22;9.40;97.40
11246;DHT22;59870;50.106;8.580;2023-12-20T07:01:50;9.30;97.40
11246;DHT22;59870;50.106;8.580;2023-12-20T07:04:18;9.30;97.50
11246;DHT22;59870;50.106;8.580;2023-12-20T07:06:49;9.30;97.60
11246;DHT22;59870;50.106;8.580;2023-12-20T07:09:19;9.30;97.50
11246;DHT22;59870;50.106;8.580;2023-12-20T07:11:46;9.30;97.50
11246;DHT22;59870;50.106;8.580;2023-12-20T07:14:15;9.30;97.50
11246;DHT22;59870;50.106;8.580;2023-12-20T07:16:43;9.30;97.70
11246;DHT22;59870;50.106;8.580;2023-12-20T07:19:10;9.30;97.60
11246;DHT22;59870;50.106;8.580;2023-12-20T07:21:38;9.30;97.70
11246;DHT22;59870;50.106;8.580;2023-12-20T07:24:05;9.30;97.70
11246;DHT22;59870;50.106;8.580;2023-12-20T07:26:33;9.20;97.60
11246;DHT22;59870;50.106;8.580;2023-12-20T07:29:01;9.50;97.70
11246;DHT22;59870;50.106;8.580;2023-12-20T07:31:28;9.20;97.40
11246;DHT22;59870;50.106;8.580;2023-12-20T07:33:56;9.20;97.50
11246;DHT22;59870;50.106;8.580;2023-12-20T07:36:23;9.20;97.10
11246;DHT22;59870;50.106;8.580;2023-12-20T07:38:51;9.20;97.00
11246;DHT22;59870;50.106;8.580;2023-12-20T07:41:18;9.20;97.10
11246;DHT22;59870;50.106;8.580;2023-12-20T07:43:48;9.10;97.00
11246;DHT22;59870;50.106;8.580;2023-12-20T07:46:17;9.30;96.90
11246;DHT22;59870;50.106;8.580;2023-12-20T07:48:46;9.10;97.10
11246;DHT22;59870;50.106;8.580;2023-12-20T07:51:14;9.10;97.10
11246;DHT22;59870;50.106;8.580;2023-12-20T07:53:41;9.10;97.10
11246;DHT22;59870;50.106;8.580;2023-12-20T07:56:16;9.50;97.60
11246;DHT22;59870;50.106;8.580;2023-12-20T07:58:45;9.10;97.50
11246;DHT22;59870;50.106;8.580;2023-12-20T08:01:20;9.10;97.50
11246;DHT22;59870;50.106;8.580;2023-12-20T08:03:49;9.20;97.40
11246;DHT22;59870;50.106;8.580;2023-12-20T08:06:17;9.20;97.50
11246;DHT22;59870;50.106;8.580;2023-12-20T08:08:45;9.20;97.50
11246;DHT22;59870;50.106;8.580;2023-12-20T08:11:21;9.20;97.30
11246;DHT22;59870;50.106;8.580;2023-12-20T08:13:48;9.20;97.60
11246;DHT22;59870;50.106;8.580;2023-12-20T08:16:16;9.20;97.50
11246;DHT22;59870;50.106;8.580;2023-12-20T08:18:47;9.20;97.30
11246;DHT22;59870;50.106;8.580;2023-12-20T08:21:14;9.30;97.40
11246;DHT22;59870;50.106;8.580;2023-12-20T08:23:43;9.30;97.50
11246;DHT22;59870;50.106;8.580;2023-12-20T08:26:10;9.30;97.30
11246;DHT22;59870;50.106;8.580;2023-12-20T08:28:38;9.30;97.30
11246;DHT22;59870;50.106;8.580;2023-12-20T08:31:05;9.30;97.10
11246;DHT22;59870;50.106;8.580;2023-12-20T08:33:33;9.30;97.10
11246;DHT22;59870;50.106;8.580;2023-12-20T08:36:00;9.40;97.30
11246;DHT22;59870;50.106;8.580;2023-12-20T08:38:32;9.40;97.20
11246;DHT22;59870;50.106;8.580;2023-12-20T08:41:00;9.40;97.20
11246;DHT22;59870;50.106;8.580;2023-12-20T08:43:28;9.40;97.30
11246;DHT22;59870;50.106;8.580;2023-12-20T08:45:56;9.50;97.60
11246;DHT22;59870;50.106;8.580;2023-12-20T08:48:24;9.80;97.60
11246;DHT22;59870;50.106;8.580;2023-12-20T08:50:51;9.60;97.20
11246;DHT22;59870;50.106;8.580;2023-12-20T08:53:20;9.70;97.10
11246;DHT22;59870;50.106;8.580;2023-12-20T08:55:48;9.70;97.20
11246;DHT22;59870;50.106;8.580;2023-12-20T08:58:15;9.70;97.10
11246;DHT22;59870;50.106;8.580;2023-12-20T09:00:43;9.80;97.00
11246;DHT22;59870;50.106;8.580;2023-12-20T09:03:10;9.80;97.00
11246;DHT22;59870;50.106;8.580;2023-12-20T09:05:38;9.90;96.90
11246;DHT22;59870;50.106;8.580;2023-12-20T09:08:05;9.90;96.90
11246;DHT22;59870;50.106;8.580;2023-12-20T09:10:35;9.90;96.70
11246;DHT22;59870;50.106;8.580;2023-12-20T09:13:03;9.90;96.90
11246;DHT22;59870;50.106;8.580;2023-12-20T09:15:31;9.90;96.90
11246;DHT22;59870;50.106;8.580;2023-12-20T09:18:03;10.00;96.50
11246;DHT22;59870;50.106;8.580;2023-12-20T09:20:31;10.00;96.50
11246;DHT22;59870;50.106;8.580;2023-12-20T09:23:00;10.10;96.30
11246;DHT22;59870;50.106;8.580;2023-12-20T09:25:28;10.10;96.50
11246;DHT22;59870;50.106;8.580;2023-12-20T09:27:57;10.20;96.30
11246;DHT22;59870;50.106;8.580;2023-12-20T09:30:25;10.20;96.30
11246;DHT22;59870;50.106;8.580;2023-12-20T09:32:55;10.20;96.20
11246;DHT22;59870;50.106;8.580;2023-12-20T09:35:23;10.30;96.20
11246;DHT22;59870;50.106;8.580;2023-12-20T09:37:51;10.30;96.30
11246;DHT22;59870;50.106;8.580;2023-12-20T09:40:20;10.30;96.10
11246;DHT22;59870;50.106;8.580;2023-12-20T09:42:56;10.30;96.00
11246;DHT22;59870;50.106;8.580;2023-12-20T09:45:25;10.40;96.20
11246;DHT22;59870;50.106;8.580;2023-12-20T09:47:54;10.40;96.00
11246;DHT22;59870;50.106;8.580;2023-12-20T09:50:22;10.40;96.10
11246;DHT22;59870;50.106;8.580;2023-12-20T09:52:52;10.40;96.20
11246;DHT22;59870;50.106;8.580;2023-12-20T09:55:20;10.40;96.30
11246;DHT22;59870;50.106;8.580;2023-12-20T09:57:49;10.70;96.30
11246;DHT22;59870;50.106;8.580;2023-12-20T10:00:17;10.50;95.90
11246;DHT22;59870;50.106;8.580;2023-12-20T10:02:58;10.50;96.10
11246;DHT22;59870;50.106;8.580;2023-12-20T10:05:32;10.50;96.10
11246;DHT22;59870;50.106;8.580;2023-12-20T10:08:01;10.50;96.10
11246;DHT22;59870;50.106;8.580;2023-12-20T10:10:30;10.30;96.10
11246;DHT22;59870;50.106;8.580;2023-12-20T10:13:12;10.60;96.00
11246;DHT22;59870;50.106;8.580;2023-12-20T10:15:41;10.70;95.70
11246;DHT22;59870;50.106;8.580;2023-12-20T10:18:11;10.70;96.10
11246;DHT22;59870;50.106;8.580;2023-12-20T10:20:40;11.10;96.10
11246;DHT22;59870;50.106;8.580;2023-12-20T10:23:09;10.80;95.90
11246;DHT22;59870;50.106;8.580;2023-12-20T10:25:37;10.90;95.80
11246;DHT22;59870;50.106;8.580;2023-12-20T10:28:11;11.00;95.50
11246;DHT22;59870;50.106;8.580;2023-12-20T10:30:40;11.00;95.60
11246;DHT22;59870;50.106;8.580;2023-12-20T10:33:09;11.00;95.60
11246;DHT22;59870;50.106;8.580;2023-12-20T10:35:39;11.10;95.80
11246;DHT22;59870;50.106;8.580;2023-12-20T10:38:11;11.10;95.30
11246;DHT22;59870;50.106;8.580;2023-12-20T10:40:41;11.10;95.40
11246;DHT22;59870;50.106;8.580;2023-12-20T10:43:10;11.20;95.40
11246;DHT22;59870;50.106;8.580;2023-12-20T10:45:39;11.50;95.40
11246;DHT22;59870;50.106;8.580;2023-12-20T10:48:10;11.40;95.30
11246;DHT22;59870;50.106;8.580;2023-12-20T10:50:41;11.50;95.20
11246;DHT22;59870;50.106;8.580;2023-12-20T10:53:10;11.50;95.20
11246;DHT22;59870;50.106;8.580;2023-12-20T10:55:39;11.50;95.00
11246;DHT22;59870;50.106;8.580;2023-12-20T10:58:08;11.50;94.80
11246;DHT22;59870;50.106;8.580;2023-12-20T11:00:39;11.60;94.50
11246;DHT22;59870;50.106;8.580;2023-12-20T11:03:11;11.60;94.60
11246;DHT22;59870;50.106;8.580;2023-12-20T11:05:53;11.60;94.40
11246;DHT22;59870;50.106;8.580;2023-12-20T11:08:32;11.50;94.50
11246;DHT22;59870;50.106;8.580;2023-12-20T11:11:05;11.10;94.00
11246;DHT22;59870;50.106;8.580;2023-12-20T11:13:48;11.50;94.20
11246;DHT22;59870;50.106;8.580;2023-12-20T11:16:20;11.50;94.10
11246;DHT22;59870;50.106;8.580;2023-12-20T11:18:51;11.50;94.00
11246;DHT22;59870;50.106;8.580;2023-12-20T11:21:19;11.50;94.00
11246;DHT22;59870;50.106;8.580;2023-12-20T11:23:47;11.50;94.00
11246;DHT22;59870;50.106;8.580;2023-12-20T11:26:16;11.50;94.10
11246;DHT22;59870;50.106;8.580;2023-12-20T11:28:44;11.60;94.00
11246;DHT22;59870;50.106;8.580;2023-12-20T11:31:14;11.60;93.80
11246;DHT22;59870;50.106;8.580;2023-12-20T11:33:43;11.70;94.20
11246;DHT22;59870;50.106;8.580;2023-12-20T11:36:15;11.70;93.80
11246;DHT22;59870;50.106;8.580;2023-12-20T11:38:58;12.10;94.00
11246;DHT22;59870;50.106;8.580;2023-12-20T11:41:26;11.70;93.60
11246;DHT22;59870;50.106;8.580;2023-12-20T11:43:55;11.80;93.40
11246;DHT22;59870;50.106;8.580;2023-12-20T11:46:23;12.20;93.60
11246;DHT22;59870;50.106;8.580;2023-12-20T11:48:51;11.90;93.00
11246;DHT22;59870;50.106;8.580;2023-12-20T11:51:19;12.00;92.70
11246;DHT22;59870;50.106;8.580;2023-12-20T11:53:51;12.00;92.90
11246;DHT22;59870;50.106;8.580;2023-12-20T11:56:19;12.00;92.60
11246;DHT22;59870;50.106;8.580;2023-12-20T11:58:46;12.10;92.10
11246;DHT22;59870;50.106;8.580;2023-12-20T12:01:19;12.50;91.70
11246;DHT22;59870;50.106;8.580;2023-12-20T12:03:47;12.10;91.40
11246;DHT22;59870;50.106;8.580;2023-12-20T12:06:14;12.20;91.50
11246;DHT22;59870;50.106;8.580;2023-12-20T12:08:42;12.20;91.90
11246;DHT22;59870;50.106;8.580;2023-12-20T12:11:12;12.20;91.50
11246;DHT22;59870;50.106;8.580;2023-12-20T12:13:40;12.40;91.50
11246;DHT22;59870;50.106;8.580;2023-12-20T12:16:07;12.30;91.50
11246;DHT22;59870;50.106;8.580;2023-12-20T12:18:35;12.30;91.40
11246;DHT22;59870;50.106;8.580;2023-12-20T12:21:03;12.40;91.40
11246;DHT22;59870;50.106;8.580;2023-12-20T12:23:39;12.40;91.40
11246;DHT22;59870;50.106;8.580;2023-12-20T12:26:07;12.40;91.10
11246;DHT22;59870;50.106;8.580;2023-12-20T12:28:34;12.40;91.00
11246;DHT22;59870;50.106;8.580;2023-12-20T12:31:02;12.40;90.80
11246;DHT22;59870;50.106;8.580;2023-12-20T12:33:30;12.40;90.60
11246;DHT22;59870;50.106;8.580;2023-12-20T12:36:00;12.40;90.50
11246;DHT22;59870;50.106;8.580;2023-12-20T12:38:28;12.40;90.60
11246;DHT22;59870;50.106;8.580;2023-12-20T12:40:57;12.30;90.40
11246;DHT22;59870;50.106;8.580;2023-12-20T12:43:25;12.30;90.30
11246;DHT22;59870;50.106;8.580;2023-12-20T12:45:54;12.40;90.60
11246;DHT22;59870;50.106;8.580;2023-12-20T12:48:23;12.60;90.50
11246;DHT22;59870;50.106;8.580;2023-12-20T12:50:52;12.60;90.60
11246;DHT22;59870;50.106;8.580;2023-12-20T12:53:21;12.60;90.40
11246;DHT22;59870;50.106;8.580;2023-12-20T12:55:48;12.40;90.20
11246;DHT22;59870;50.106;8.580;2023-12-20T12:58:16;12.40;90.40
11246;DHT22;59870;50.106;8.580;2023-12-20T13:00:44;12.80;90.50
11246;DHT22;59870;50.106;8.580;2023-12-20T13:03:13;12.40;90.30
11246;DHT22;59870;50.106;8.580;2023-12-20T13:05:41;12.40;90.20
11246;DHT22;59870;50.106;8.580;2023-12-20T13:08:14;12.40;90.40
11246;DHT22;59870;50.106;8.580;2023-12-20T13:10:43;12.40;90.60
11246;DHT22;59870;50.106;8.580;2023-12-20T13:13:11;12.40;90.50
11246;DHT22;59870;50.106;8.580;2023-12-20T13:15:39;12.80;90.60
11246;DHT22;59870;50.106;8.580;2023-12-20T13:18:06;12.40;90.30
11246;DHT22;59870;50.106;8.580;2023-12-20T13:20:34;12.50;90.80
11246;DHT22;59870;50.106;8.580;2023-12-20T13:23:01;12.40;90.70
11246;DHT22;59870;50.106;8.580;2023-12-20T13:25:29;12.40;90.90
11246;DHT22;59870;50.106;8.580;2023-12-20T13:27:56;12.50;91.10
11246;DHT22;59870;50.106;8.580;2023-12-20T13:30:24;12.50;90.70
11246;DHT22;59870;50.106;8.580;2023-12-20T13:32:51;12.90;90.50
11246;DHT22;59870;50.106;8.580;2023-12-20T13:35:19;12.60;90.60
11246;DHT22;59870;50.106;8.580;2023-12-20T13:37:48;12.50;90.70
11246;DHT22;59870;50.106;8.580;2023-12-20T13:40:16;12.50;90.70
11246;DHT22;59870;50.106;8.580;2023-12-20T13:42:44;12.50;90.80
11246;DHT22;59870;50.106;8.580;2023-12-20T13:45:12;12.50;90.60
11246;DHT22;59870;50.106;8.580;2023-12-20T13:47:40;12.50;90.60
11246;DHT22;59870;50.106;8.580;2023-12-20T13:50:07;12.50;90.70
11246;DHT22;59870;50.106;8.580;2023-12-20T13:52:35;12.50;91.20
11246;DHT22;59870;50.106;8.580;2023-12-20T13:55:06;12.50;91.00
11246;DHT22;59870;50.106;8.580;2023-12-20T13:57:35;12.50;91.10
11246;DHT22;59870;50.106;8.580;2023-12-20T14:00:22;12.50;91.00
11246;DHT22;59870;50.106;8.580;2023-12-20T14:02:50;12.90;91.10
11246;DHT22;59870;50.106;8.580;2023-12-20T14:05:18;12.60;90.80
11246;DHT22;59870;50.106;8.580;2023-12-20T14:07:48;12.50;91.00
11246;DHT22;59870;50.106;8.580;2023-12-20T14:10:16;12.50;91.00
11246;DHT22;59870;50.106;8.580;2023-12-20T14:12:44;12.50;91.20
11246;DHT22;59870;50.106;8.580;2023-12-20T14:15:13;12.50;91.20
11246;DHT22;59870;50.106;8.580;2023-12-20T14:17:42;12.50;91.20
11246;DHT22;59870;50.106;8.580;2023-12-20T14:20:10;12.50;91.60
11246;DHT22;59870;50.106;8.580;2023-12-20T14:22:40;12.50;91.30
11246;DHT22;59870;50.106;8.580;2023-12-20T14:25:16;12.50;91.10
11246;DHT22;59870;50.106;8.580;2023-12-20T14:27:44;12.70;91.10
11246;DHT22;59870;50.106;8.580;2023-12-20T14:30:13;12.40;91.20
11246;DHT22;59870;50.106;8.580;2023-12-20T14:32:42;12.40;91.30
11246;DHT22;59870;50.106;8.580;2023-12-20T14:35:10;12.40;91.40
11246;DHT22;59870;50.106;8.580;2023-12-20T14:37:38;12.30;91.30
11246;DHT22;59870;50.106;8.580;2023-12-20T14:40:08;12.50;91.50
11246;DHT22;59870;50.106;8.580;2023-12-20T14:42:44;12.30;91.40
11246;DHT22;59870;50.106;8.580;2023-12-20T14:45:12;12.30;91.40
11246;DHT22;59870;50.106;8.580;2023-12-20T14:47:41;12.20;91.60
11246;DHT22;59870;50.106;8.580;2023-12-20T14:50:09;12.20;91.50
11246;DHT22;59870;50.106;8.580;2023-12-20T14:52:39;12.20;91.50
11246;DHT22;59870;50.106;8.580;2023-12-20T14:55:07;12.20;91.30
11246;DHT22;59870;50.106;8.580;2023-12-20T14:57:35;12.20;91.20
11246;DHT22;59870;50.106;8.580;2023-12-20T15:00:03;12.20;91.20
11246;DHT22;59870;50.106;8.580;2023-12-20T15:02:31;12.20;91.30
11246;DHT22;59870;50.106;8.580;2023-12-20T15:04:59;12.10;91.30
11246;DHT22;59870;50.106;8.580;2023-12-20T15:07:26;12.30;91.30
11246;DHT22;59870;50.106;8.580;2023-12-20T15:09:54;12.10;91.30
11246;DHT22;59870;50.106;8.580;2023-12-20T15:12:22;12.10;91.50
11246;DHT22;59870;50.106;8.580;2023-12-20T15:14:50;12.20;91.60
11246;DHT22;59870;50.106;8.580;2023-12-20T15:17:18;12.00;91.40
11246;DHT22;59870;50.106;8.580;2023-12-20T15:19:45;12.00;91.60
11246;DHT22;59870;50.106;8.580;2023-12-20T15:22:12;12.00;91.50
11246;DHT22;59870;50.106;8.580;2023-12-20T15:24:40;11.90;91.60
11246;DHT22;59870;50.106;8.580;2023-12-20T15:27:09;11.90;91.70
11246;DHT22;59870;50.106;8.580;2023-12-20T15:29:37;11.90;91.60
11246;DHT22;59870;50.106;8.580;2023-12-20T15:32:05;11.90;91.50
11246;DHT22;59870;50.106;8.580;2023-12-20T15:34:32;11.90;91.80
11246;DHT22;59870;50.106;8.580;2023-12-20T15:37:00;11.90;91.50
11246;DHT22;59870;50.106;8.580;2023-12-20T15:39:28;11.90;91.60
11246;DHT22;59870;50.106;8.580;2023-12-20T15:41:56;11.90;91.50
11246;DHT22;59870;50.106;8.580;2023-12-20T15:44:23;11.80;91.60
11246;DHT22;59870;50.106;8.580;2023-12-20T15:46:51;11.80;91.70
11246;DHT22;59870;50.106;8.580;2023-12-20T15:49:19;11.80;91.80